Time;durP1;ratioP1;P1;durP2;ratioP2;P2;SDS_P1;SDS_P2;PMS_P1;PMS_P2;Temp;Humidity;BMP_temperature;BMP_pressure;BME280_temperature;BME280_humidity;BME280_pressure;Samples;Min_cycle;Max_cycle;Signal;HPM_P1;HPM_P2
2022/09/21 00:02:22;;;;;;;0.40;0.40;;;21.00;57.70;;;;;;6222229;28;20060;-79
2022/09/21 00:05:24;;;;;;;0.50;0.47;;;20.90;57.70;;;;;;6215420;28;20034;-78
2022/09/21 00:08:24;;;;;;;0.98;0.70;;;20.90;57.70;;;;;;6216414;28;20025;-79
2022/09/21 00:11:27;;;;;;;0.47;0.43;;;21.00;57.80;;;;;;6215343;28;20046;-79
2022/09/21 00:14:28;;;;;;;0.52;0.43;;;20.90;57.70;;;;;;6215348;28;20117;-79
2022/09/21 00:17:28;;;;;;;0.68;0.60;;;20.90;57.70;;;;;;6216594;28;20014;-79
2022/09/21 00:20:29;;;;;;;0.40;0.40;;;20.90;57.60;;;;;;6215547;28;20022;-79
2022/09/21 00:23:29;;;;;;;0.45;0.40;;;20.90;57.70;;;;;;6215478;28;20059;-79
2022/09/21 00:26:30;;;;;;;0.70;0.50;;;20.90;57.70;;;;;;6215053;28;20040;-79
2022/09/21 00:29:31;;;;;;;0.57;0.45;;;21.00;57.80;;;;;;6221524;28;20076;-78
2022/09/21 00:32:33;;;;;;;0.52;0.52;;;20.90;57.70;;;;;;6215427;28;20026;-80
2022/09/21 00:35:34;;;;;;;0.80;0.55;;;20.90;57.70;;;;;;6220828;28;20026;-79
2022/09/21 00:38:36;;;;;;;0.55;0.40;;;20.90;57.60;;;;;;6215448;28;20026;-79
2022/09/21 00:41:36;;;;;;;0.52;0.45;;;20.90;57.70;;;;;;6215690;28;20052;-79
2022/09/21 00:44:37;;;;;;;0.65;0.47;;;20.90;57.70;;;;;;6214690;28;20077;-79
2022/09/21 00:47:43;;;;;;;1.17;0.50;;;20.90;57.60;;;;;;6215555;28;20392;-79
2022/09/21 00:50:52;;;;;;;0.70;0.50;;;20.90;57.70;;;;;;6217343;28;20094;-79
2022/09/21 00:54:00;;;;;;;1.02;0.50;;;20.90;57.70;;;;;;6215122;28;20026;-79
2022/09/21 00:57:01;;;;;;;0.50;0.43;;;20.90;57.50;;;;;;6218235;28;20140;-80
2022/09/21 01:00:07;;;;;;;0.77;0.43;;;20.90;57.60;;;;;;6214990;28;20560;-78
2022/09/21 01:03:09;;;;;;;0.47;0.40;;;20.90;57.60;;;;;;6214674;28;20062;-79
2022/09/21 01:06:10;;;;;;;0.40;0.40;;;20.90;57.60;;;;;;6214298;28;20083;-79
2022/09/21 01:09:11;;;;;;;0.50;0.43;;;20.90;57.60;;;;;;6214990;28;20030;-79
2022/09/21 01:12:38;;;;;;;0.65;0.50;;;20.90;57.70;;;;;;6214360;28;20026;-79
2022/09/21 01:16:00;;;;;;;0.77;0.40;;;20.90;57.70;;;;;;6220921;28;20022;-78
2022/09/21 01:19:25;;;;;;;0.50;0.45;;;20.90;57.60;;;;;;6214931;28;20022;-79
2022/09/21 01:22:34;;;;;;;0.75;0.43;;;20.90;57.50;;;;;;6214327;28;20122;-77
2022/09/21 01:26:10;;;;;;;0.40;0.40;;;20.90;57.70;;;;;;6213911;28;20054;-79
2022/09/21 01:29:19;;;;;;;0.57;0.40;;;20.90;57.50;;;;;;6214148;28;20034;-78
2022/09/21 01:32:37;;;;;;;0.50;0.40;;;20.90;57.70;;;;;;6214239;28;20507;-79
2022/09/21 01:35:48;;;;;;;0.70;0.50;;;20.90;57.70;;;;;;6214205;28;20048;-79
2022/09/21 01:38:54;;;;;;;0.52;0.50;;;20.90;57.60;;;;;;6214481;28;20026;-79
2022/09/21 01:41:55;;;;;;;;;;;20.90;57.60;;;;;;6214964;28;20041;-79
2022/09/21 01:44:59;;;;;;;0.57;0.50;;;20.90;57.60;;;;;;6213845;28;19921;-79
2022/09/21 01:48:03;;;;;;;0.60;0.40;;;20.90;57.50;;;;;;6217985;28;20433;-79
2022/09/21 01:51:08;;;;;;;0.65;0.50;;;20.90;57.60;;;;;;6223161;28;20030;-79
2022/09/21 01:54:20;;;;;;;0.90;0.52;;;20.90;57.50;;;;;;6217700;28;20616;-79
2022/09/21 01:57:25;;;;;;;0.50;0.40;;;20.90;57.70;;;;;;6218296;28;20314;-80
2022/09/21 02:00:27;;;;;;;0.40;0.30;;;20.90;57.50;;;;;;6218184;28;20049;-79
2022/09/21 02:03:48;;;;;;;1.02;0.57;;;20.90;57.50;;;;;;6218501;28;20030;-79
2022/09/21 02:06:50;;;;;;;0.40;0.40;;;20.90;57.50;;;;;;6217946;28;20037;-79
2022/09/21 02:09:53;;;;;;;0.68;0.40;;;20.90;57.50;;;;;;6218343;28;20014;-79
2022/09/21 02:13:01;;;;;;;1.25;0.60;;;20.90;57.50;;;;;;6218042;28;20028;-79
2022/09/21 02:16:01;;;;;;;0.50;0.40;;;20.90;57.40;;;;;;6217928;28;20014;-81
2022/09/21 02:19:28;;;;;;;1.00;0.60;;;20.90;57.50;;;;;;6217655;28;20476;-79
2022/09/21 02:22:40;;;;;;;0.70;0.40;;;20.90;57.50;;;;;;6220477;28;20056;-76
2022/09/21 02:25:53;;;;;;;0.50;0.40;;;20.90;57.40;;;;;;6217896;28;20481;-79
2022/09/21 02:29:39;;;;;;;1.00;0.43;;;20.90;57.50;;;;;;6217897;28;20472;-79
2022/09/21 02:33:05;;;;;;;0.45;0.40;;;20.90;57.50;;;;;;6232481;28;20114;-79
2022/09/21 02:36:07;;;;;;;;;;;20.90;57.50;;;;;;6218101;28;20026;-81
2022/09/21 02:39:16;;;;;;;1.10;0.70;;;20.90;57.50;;;;;;6217652;28;19905;-78
2022/09/21 02:42:41;;;;;;;0.40;0.40;;;20.90;57.50;;;;;;6217493;28;20099;-79
2022/09/21 02:45:49;;;;;;;0.93;0.63;;;20.90;57.60;;;;;;6217368;28;20167;-79
2022/09/21 02:48:54;;;;;;;0.65;0.55;;;20.90;57.50;;;;;;6217634;28;20536;-79
2022/09/21 02:51:59;;;;;;;0.45;0.45;;;20.90;57.60;;;;;;6216811;28;20604;-79
2022/09/21 02:55:01;;;;;;;0.60;0.40;;;20.90;57.50;;;;;;6217597;28;20488;-79
2022/09/21 02:58:05;;;;;;;0.30;0.30;;;20.90;57.50;;;;;;6216399;28;20483;-79
2022/09/21 03:01:09;;;;;;;0.40;0.30;;;20.90;57.50;;;;;;6217121;28;20037;-79
2022/09/21 03:04:10;;;;;;;0.93;0.47;;;20.90;57.40;;;;;;6217251;28;20396;-80
2022/09/21 03:07:11;;;;;;;0.30;0.30;;;20.90;57.50;;;;;;6216875;28;20041;-79
2022/09/21 03:10:11;;;;;;;0.55;0.40;;;20.90;57.50;;;;;;6216526;28;20488;-79
2022/09/21 03:13:12;;;;;;;0.80;0.45;;;20.90;57.50;;;;;;6216931;28;20424;-79
2022/09/21 03:16:13;;;;;;;1.23;0.50;;;20.90;57.40;;;;;;6222885;28;20545;-79
2022/09/21 03:19:14;;;;;;;0.50;0.50;;;20.90;57.50;;;;;;6217680;28;20044;-79
2022/09/21 03:22:16;;;;;;;0.50;0.50;;;20.90;57.40;;;;;;6217375;28;20052;-78
2022/09/21 03:25:17;;;;;;;0.45;0.45;;;20.90;57.50;;;;;;6192766;28;20076;-79
2022/09/21 03:28:18;;;;;;;0.68;0.50;;;20.90;57.40;;;;;;6200351;28;20443;-79
2022/09/21 03:31:19;;;;;;;0.40;0.40;;;20.90;57.50;;;;;;6217148;28;20036;-79
2022/09/21 03:34:20;;;;;;;0.68;0.40;;;20.90;57.40;;;;;;6216477;28;20468;-79
2022/09/21 03:37:20;;;;;;;0.60;0.40;;;20.90;57.50;;;;;;6216939;28;20029;-79
2022/09/21 03:40:22;;;;;;;0.60;0.50;;;20.90;57.50;;;;;;6219794;28;20022;-79
2022/09/21 03:43:23;;;;;;;0.35;0.30;;;20.90;57.50;;;;;;6216264;28;20061;-79
2022/09/21 03:46:23;;;;;;;0.35;0.35;;;20.90;57.50;;;;;;6215795;28;20468;-80
2022/09/21 03:49:24;;;;;;;0.65;0.40;;;20.90;57.40;;;;;;6216494;28;20022;-77
2022/09/21 03:52:25;;;;;;;0.50;0.43;;;20.90;57.50;;;;;;6216166;28;20026;-79
2022/09/21 03:55:26;;;;;;;0.50;0.40;;;20.90;57.50;;;;;;6216252;28;20025;-79
2022/09/21 03:58:27;;;;;;;0.60;0.50;;;20.90;57.40;;;;;;6215935;28;20022;-80
2022/09/21 04:01:27;;;;;;;0.35;0.32;;;20.90;57.50;;;;;;6216208;28;20108;-79
2022/09/21 04:04:28;;;;;;;0.50;0.40;;;20.90;57.40;;;;;;6216603;28;20018;-79
2022/09/21 04:07:36;;;;;;;0.80;0.60;;;20.90;57.40;;;;;;6215624;28;20460;-80
2022/09/21 04:10:39;;;;;;;0.50;0.40;;;20.90;57.50;;;;;;6215252;28;20026;-79
2022/09/21 04:13:41;;;;;;;0.75;0.47;;;20.90;57.40;;;;;;6215004;28;20024;-79
2022/09/21 04:16:41;;;;;;;0.40;0.40;;;20.90;57.40;;;;;;6214690;28;20480;-79
2022/09/21 04:19:46;;;;;;;0.40;0.38;;;20.90;57.50;;;;;;6216385;28;20022;-78
2022/09/21 04:22:47;;;;;;;0.38;0.38;;;20.90;57.40;;;;;;6216148;28;20021;-79
2022/09/21 04:25:50;;;;;;;0.93;0.40;;;20.90;57.50;;;;;;6215772;28;20049;-80
2022/09/21 04:28:52;;;;;;;0.93;0.50;;;20.90;57.50;;;;;;6218517;28;20030;-79
2022/09/21 04:31:53;;;;;;;0.65;0.40;;;20.90;57.50;;;;;;6215830;28;20377;-80
2022/09/21 04:34:54;;;;;;;0.57;0.40;;;20.90;57.50;;;;;;6214915;28;20037;-79
2022/09/21 04:37:55;;;;;;;0.20;0.20;;;20.90;57.50;;;;;;6214734;28;20082;-79
2022/09/21 04:40:56;;;;;;;0.55;0.45;;;20.90;57.50;;;;;;6215326;28;20030;-78
2022/09/21 04:43:57;;;;;;;0.57;0.50;;;20.90;57.50;;;;;;6214939;28;20157;-76
2022/09/21 04:46:58;;;;;;;0.32;0.32;;;20.90;57.40;;;;;;6215159;28;20526;-79
2022/09/21 04:49:59;;;;;;;0.43;0.40;;;20.90;57.50;;;;;;6215051;28;20034;-79
2022/09/21 04:53:00;;;;;;;0.73;0.43;;;20.90;57.40;;;;;;6215413;28;20543;-79
2022/09/21 04:56:01;;;;;;;0.40;0.40;;;20.90;57.50;;;;;;6221238;28;20030;-79
2022/09/21 05:02:58;;;;;;;0.40;0.40;;;20.90;57.30;;;;;;6197629;28;20113;-79
2022/09/21 05:05:59;;;;;;;0.50;0.32;;;20.90;57.40;;;;;;6207035;28;20040;-77
2022/09/21 05:12:19;;;;;;;0.45;0.30;;;20.90;57.50;;;;;;6204154;28;20033;-77
2022/09/21 05:15:21;;;;;;;0.50;0.40;;;20.90;57.60;;;;;;6213438;28;20329;-76
2022/09/21 05:18:21;;;;;;;0.70;0.50;;;20.90;57.40;;;;;;6210240;28;20467;-80
2022/09/21 05:21:22;;;;;;;4.80;0.50;;;20.80;57.00;;;;;;6213928;28;20018;-79
2022/09/21 05:24:23;;;;;;;2.88;0.60;;;20.80;56.70;;;;;;6244125;28;20089;-78
2022/09/21 05:27:24;;;;;;;1.15;0.50;;;20.80;56.80;;;;;;6213313;28;20038;-78
2022/09/21 05:30:24;;;;;;;1.50;0.60;;;20.80;56.80;;;;;;6213679;28;20034;-79
2022/09/21 05:33:29;;;;;;;2.47;0.50;;;20.80;56.50;;;;;;6213773;28;20180;-75
2022/09/21 05:36:50;;;;;;;1.87;0.73;;;20.80;56.80;;;;;;6218955;28;20257;-78
2022/09/21 05:39:50;;;;;;;1.23;0.80;;;20.90;57.00;;;;;;6191450;28;20707;-79
2022/09/21 05:42:51;;;;;;;3.00;0.70;;;20.80;56.80;;;;;;6213273;28;20042;-80
2022/09/21 05:46:01;;;;;;;4.60;0.60;;;20.80;56.70;;;;;;6213408;28;20042;-79
2022/09/21 05:49:14;;;;;;;1.17;0.73;;;20.80;57.60;;;;;;6212681;28;20026;-79
2022/09/21 05:52:39;;;;;;;1.77;0.52;;;20.80;56.80;;;;;;6213756;28;20033;-79
2022/09/21 05:55:56;;;;;;;1.55;0.77;;;20.90;56.80;;;;;;6213256;28;20046;-78
2022/09/21 05:59:11;;;;;;;1.25;0.60;;;20.90;56.90;;;;;;6221008;28;20026;-77
2022/09/21 06:02:30;;;;;;;;;;;20.90;56.80;;;;;;6204769;28;20034;-78
2022/09/21 06:05:30;;;;;;;1.23;0.60;;;20.80;56.80;;;;;;6205150;28;19917;-77
2022/09/21 06:08:31;;;;;;;0.93;0.47;;;20.80;56.90;;;;;;6215037;28;20028;-78
2022/09/21 06:11:31;;;;;;;1.45;0.75;;;20.80;56.90;;;;;;6214632;28;20030;-78
2022/09/21 06:14:32;;;;;;;0.73;0.55;;;20.90;57.00;;;;;;6214943;28;20400;-78
2022/09/21 06:17:33;;;;;;;1.02;0.50;;;20.90;57.70;;;;;;6214858;28;20034;-78
2022/09/21 06:20:34;;;;;;;2.15;0.70;;;20.80;57.00;;;;;;6215374;28;20046;-78
2022/09/21 06:23:35;;;;;;;0.55;0.50;;;20.80;57.00;;;;;;6214756;28;20228;-79
2022/09/21 06:26:36;;;;;;;1.33;0.60;;;20.80;57.00;;;;;;6214617;28;20048;-77
2022/09/21 06:29:36;;;;;;;0.93;0.50;;;20.90;57.00;;;;;;6210078;28;20031;-77
2022/09/21 06:32:37;;;;;;;1.48;0.60;;;20.90;57.20;;;;;;6303793;28;20023;-77
2022/09/21 06:35:39;;;;;;;0.95;0.60;;;20.90;57.10;;;;;;6222087;28;20053;-76
2022/09/21 06:38:39;;;;;;;3.38;0.68;;;20.90;57.10;;;;;;6213146;28;20034;-76
2022/09/21 06:41:40;;;;;;;1.20;0.70;;;21.00;57.30;;;;;;6218790;28;20032;-77
2022/09/21 06:44:41;;;;;;;3.08;0.60;;;21.00;57.20;;;;;;6210723;28;20103;-78
2022/09/21 06:47:46;;;;;;;1.10;0.52;;;21.00;57.30;;;;;;6205577;28;20474;-77
2022/09/21 06:50:47;;;;;;;0.75;0.63;;;21.00;57.20;;;;;;6317033;27;20034;-78
2022/09/21 06:53:48;;;;;;;0.75;0.60;;;21.00;57.30;;;;;;6214684;28;20450;-77
2022/09/21 06:56:48;;;;;;;0.57;0.40;;;21.00;56.90;;;;;;6218353;28;20117;-77
2022/09/21 06:59:49;;;;;;;4.25;0.70;;;21.00;57.10;;;;;;6218199;28;20018;-78
2022/09/21 07:02:50;;;;;;;4.10;0.85;;;21.00;57.00;;;;;;6217927;28;20033;-76
2022/09/21 07:05:50;;;;;;;5.22;0.80;;;20.90;57.00;;;;;;6202376;28;20060;-78
2022/09/21 07:08:52;;;;;;;1.85;0.68;;;20.90;57.70;;;;;;6216642;28;20108;-78
2022/09/21 07:11:53;;;;;;;0.98;0.50;;;20.90;57.20;;;;;;6218330;28;20022;-77
2022/09/21 07:14:54;;;;;;;2.17;0.73;;;20.90;57.20;;;;;;6223504;28;20396;-77
2022/09/21 07:17:54;;;;;;;2.15;0.50;;;20.90;57.20;;;;;;6217965;28;20097;-78
2022/09/21 07:20:55;;;;;;;4.20;0.90;;;20.90;57.90;;;;;;6217507;28;20029;-77
2022/09/21 07:23:59;;;;;;;3.15;0.90;;;20.90;57.30;;;;;;6217528;28;20029;-78
2022/09/21 07:26:59;;;;;;;2.13;0.60;;;20.90;57.30;;;;;;6217476;28;20033;-78
2022/09/21 07:30:00;;;;;;;2.25;0.80;;;20.90;57.30;;;;;;6217359;28;20022;-78
2022/09/21 07:33:00;;;;;;;3.65;0.90;;;20.90;57.40;;;;;;6221928;28;20026;-78
2022/09/21 07:36:05;;;;;;;2.33;0.70;;;20.90;57.20;;;;;;6223830;28;20422;-78
2022/09/21 07:39:08;;;;;;;0.90;0.50;;;20.90;57.30;;;;;;6216885;28;20034;-77
2022/09/21 07:42:09;;;;;;;1.60;0.63;;;20.90;57.40;;;;;;6223706;28;20018;-78
2022/09/21 07:45:10;;;;;;;2.80;0.52;;;20.90;57.30;;;;;;6215766;28;20062;-77
2022/09/21 07:48:10;;;;;;;1.92;0.88;;;20.90;57.30;;;;;;6217319;28;20030;-78
2022/09/21 07:51:14;;;;;;;1.88;1.05;;;20.90;57.10;;;;;;6216658;28;20431;-78
2022/09/21 07:54:14;;;;;;;1.73;0.68;;;20.90;57.10;;;;;;6217061;28;20018;-78
2022/09/21 08:00:36;;;;;;;1.95;1.05;;;20.90;57.30;;;;;;6216753;28;20037;-77
2022/09/21 08:03:36;;;;;;;3.60;0.88;;;20.90;57.00;;;;;;6217107;28;20074;-77
2022/09/21 08:06:38;;;;;;;1.17;0.68;;;20.90;57.10;;;;;;6211315;28;20378;-78
2022/09/21 08:09:40;;;;;;;1.00;0.60;;;21.00;57.20;;;;;;6215887;28;20033;-77
2022/09/21 08:12:43;;;;;;;1.10;0.68;;;21.00;57.20;;;;;;6216737;28;21011;-77
2022/09/21 08:15:43;;;;;;;1.30;0.70;;;21.00;57.30;;;;;;6214629;28;20046;-77
2022/09/21 08:18:44;;;;;;;2.97;0.82;;;21.00;57.40;;;;;;6216368;28;20158;-78
2022/09/21 08:21:48;;;;;;;2.38;0.60;;;20.90;57.30;;;;;;6222382;28;20121;-77
2022/09/21 08:24:48;;;;;;;3.83;0.70;;;20.90;57.30;;;;;;6216660;28;20026;-78
2022/09/21 08:27:49;;;;;;;1.23;0.60;;;20.90;57.40;;;;;;6215218;28;20048;-78
2022/09/21 08:30:49;;;;;;;1.60;0.63;;;20.90;57.30;;;;;;6215439;28;20026;-77
2022/09/21 08:33:51;;;;;;;0.90;0.55;;;20.90;57.30;;;;;;6216969;28;20029;-78
2022/09/21 08:36:51;;;;;;;2.17;0.63;;;20.90;57.30;;;;;;6216402;28;20033;-78
2022/09/21 08:39:52;;;;;;;2.28;0.68;;;20.90;57.30;;;;;;6216610;28;20480;-78
2022/09/21 08:43:00;;;;;;;3.20;0.70;;;20.90;57.40;;;;;;6216462;28;20060;-77
2022/09/21 08:46:05;;;;;;;1.17;0.68;;;20.90;57.40;;;;;;6216220;28;20455;-77
2022/09/21 08:49:20;;;;;;;1.92;0.82;;;20.90;57.20;;;;;;6217119;28;20018;-78
2022/09/21 08:52:23;;;;;;;1.63;0.60;;;21.00;57.40;;;;;;6216495;28;20044;-77
2022/09/21 08:55:24;;;;;;;1.02;0.50;;;20.90;57.30;;;;;;6215686;28;20058;-78
2022/09/21 08:58:30;;;;;;;0.98;0.65;;;20.90;57.30;;;;;;6222254;28;20082;-78
2022/09/21 09:01:53;;;;;;;1.00;0.50;;;20.90;57.40;;;;;;6215754;28;20038;-78
2022/09/21 09:05:02;;;;;;;2.20;0.95;;;20.90;57.50;;;;;;6215621;28;20096;-77
2022/09/21 09:08:20;;;;;;;1.38;0.65;;;20.90;57.40;;;;;;6217984;28;20030;-78
2022/09/21 09:11:36;;;;;;;2.20;0.60;;;20.90;57.50;;;;;;6215829;28;20028;-77
2022/09/21 09:14:59;;;;;;;0.82;0.70;;;20.90;57.50;;;;;;6216252;28;20137;-78
2022/09/21 09:18:21;;;;;;;1.15;0.55;;;20.90;57.50;;;;;;6218798;28;20030;-79
2022/09/21 09:21:33;;;;;;;1.55;0.52;;;20.90;57.40;;;;;;6195968;28;20097;-75
2022/09/21 09:24:48;;;;;;;1.15;0.57;;;20.90;57.50;;;;;;6276039;28;20036;-77
2022/09/21 09:27:56;;;;;;;1.17;0.60;;;20.90;58.20;;;;;;6279827;28;20037;-76
2022/09/21 09:31:10;;;;;;;1.38;0.60;;;20.90;57.50;;;;;;6213524;28;20018;-77
2022/09/21 09:34:15;;;;;;;1.35;0.65;;;20.90;57.60;;;;;;6215375;28;20392;-77
2022/09/21 09:37:16;;;;;;;1.13;0.60;;;20.90;57.40;;;;;;6215539;28;20109;-78
2022/09/21 09:40:31;;;;;;;3.72;0.52;;;21.00;57.50;;;;;;6214870;28;20268;-77
2022/09/21 09:43:52;;;;;;;1.95;0.70;;;21.00;57.40;;;;;;6215177;28;20416;-77
2022/09/21 09:47:04;;;;;;;3.65;0.70;;;21.00;57.10;;;;;;6191782;28;20061;-78
2022/09/21 09:50:32;;;;;;;2.83;0.80;;;21.00;57.40;;;;;;6215380;28;20029;-78
2022/09/21 09:53:34;;;;;;;5.20;0.80;;;21.00;57.40;;;;;;6215384;28;20097;-78
2022/09/21 09:56:35;;;;;;;1.83;0.70;;;21.00;57.50;;;;;;6215424;28;20037;-78
2022/09/21 09:59:36;;;;;;;2.50;0.65;;;21.00;57.50;;;;;;6214981;28;20022;-78
2022/09/21 10:02:48;;;;;;;1.25;0.65;;;20.90;57.50;;;;;;6215262;28;20026;-77
2022/09/21 10:05:49;;;;;;;2.53;0.60;;;20.90;57.50;;;;;;6215256;28;20083;-78
2022/09/21 10:08:52;;;;;;;2.67;0.70;;;20.90;57.50;;;;;;6218600;28;20050;-78
2022/09/21 10:11:59;;;;;;;3.72;0.80;;;20.90;57.50;;;;;;6219589;28;20104;-78
2022/09/21 10:15:00;;;;;;;2.65;0.60;;;20.90;57.50;;;;;;6219512;28;20030;-77
2022/09/21 10:18:14;;;;;;;2.90;0.57;;;20.90;57.50;;;;;;6219201;28;20494;-77
2022/09/21 10:21:26;;;;;;;1.13;0.55;;;20.90;57.50;;;;;;6218678;28;20489;-76
2022/09/21 10:24:34;;;;;;;3.60;0.63;;;20.90;57.50;;;;;;6219885;28;20029;-77
2022/09/21 10:27:36;;;;;;;0.65;0.55;;;20.90;57.50;;;;;;6218798;28;20511;-77
2022/09/21 10:30:37;;;;;;;0.70;0.40;;;20.90;57.50;;;;;;6218950;28;20383;-77
2022/09/21 10:33:51;;;;;;;0.90;0.57;;;20.90;57.60;;;;;;6219347;28;20034;-78
2022/09/21 10:36:55;;;;;;;1.80;0.60;;;20.90;57.60;;;;;;6218763;28;20108;-78
2022/09/21 10:39:58;;;;;;;1.60;0.60;;;20.90;57.60;;;;;;6219322;28;20468;-78
2022/09/21 10:42:59;;;;;;;1.13;0.70;;;20.90;57.70;;;;;;6218658;28;20538;-79
2022/09/21 10:46:00;;;;;;;0.55;0.50;;;20.90;57.60;;;;;;6219067;28;20038;-78
2022/09/21 10:49:02;;;;;;;2.10;0.50;;;20.90;57.60;;;;;;6213257;28;20033;-78
2022/09/21 10:52:02;;;;;;;2.80;0.70;;;20.90;57.60;;;;;;6209858;28;20022;-79
2022/09/21 10:55:04;;;;;;;0.93;0.60;;;20.90;57.60;;;;;;6225298;28;20033;-77
2022/09/21 10:58:10;;;;;;;0.65;0.57;;;20.90;57.60;;;;;;6218581;28;20097;-74
2022/09/21 11:01:22;;;;;;;1.52;0.47;;;20.90;57.60;;;;;;6217464;28;20129;-78
2022/09/21 11:04:31;;;;;;;0.50;0.50;;;20.90;57.60;;;;;;6214813;28;20038;-77
2022/09/21 11:07:35;;;;;;;0.85;0.50;;;20.90;57.50;;;;;;6215146;28;20033;-77
2022/09/21 11:10:49;;;;;;;0.30;0.30;;;20.90;57.50;;;;;;6218476;28;20018;-78
2022/09/21 11:13:55;;;;;;;0.55;0.45;;;20.90;57.60;;;;;;6242709;28;20027;-78
2022/09/21 11:17:02;;;;;;;1.70;0.50;;;20.90;57.60;;;;;;6255264;28;20067;-78
2022/09/21 11:20:26;;;;;;;0.93;0.60;;;20.90;57.60;;;;;;6217235;28;20536;-78
2022/09/21 11:23:51;;;;;;;0.88;0.50;;;20.90;57.60;;;;;;6216497;28;20476;-77
2022/09/21 11:27:18;;;;;;;1.55;0.73;;;21.00;58.00;;;;;;6233888;28;20041;-77
2022/09/21 11:30:19;;;;;;;3.42;0.73;;;21.00;57.70;;;;;;6223158;28;20075;-77
2022/09/21 11:33:30;;;;;;;0.45;0.43;;;21.00;57.60;;;;;;6217224;28;20393;-78
2022/09/21 11:36:33;;;;;;;4.00;0.50;;;21.00;57.70;;;;;;6214647;28;20388;-78
2022/09/21 11:40:18;;;;;;;4.22;0.47;;;21.00;57.70;;;;;;6217258;28;20036;-79
2022/09/21 11:43:40;;;;;;;1.10;0.50;;;20.90;57.60;;;;;;6291081;28;20414;-78
2022/09/21 11:46:47;;;;;;;2.65;0.50;;;20.90;57.60;;;;;;6283237;28;20624;-78
2022/09/21 11:50:02;;;;;;;0.95;0.57;;;20.90;57.50;;;;;;6216645;28;20622;-78
2022/09/21 11:53:50;;;;;;;1.02;0.43;;;20.90;57.60;;;;;;6217193;28;20037;-78
2022/09/21 11:57:07;;;;;;;4.20;0.57;;;20.90;57.60;;;;;;6260894;28;20034;-78
2022/09/21 12:00:14;;;;;;;1.20;0.52;;;20.90;57.70;;;;;;6218293;28;20045;-78
2022/09/21 12:03:33;;;;;;;0.30;0.30;;;20.90;57.60;;;;;;6216698;28;20084;-77
2022/09/21 12:06:54;;;;;;;1.40;0.68;;;20.90;57.70;;;;;;6216718;28;20069;-77
2022/09/21 12:10:04;;;;;;;0.70;0.40;;;20.90;57.70;;;;;;6216750;28;20090;-77
2022/09/21 12:13:36;;;;;;;1.10;0.55;;;20.90;57.70;;;;;;6216735;28;20022;-79
2022/09/21 12:17:07;;;;;;;0.68;0.47;;;20.90;57.70;;;;;;6290104;28;20416;-76
2022/09/21 12:20:29;;;;;;;0.73;0.60;;;20.90;57.70;;;;;;6291161;28;20103;-78
2022/09/21 12:23:41;;;;;;;3.50;0.60;;;20.90;58.50;;;;;;6290714;28;20241;-78
2022/09/21 12:26:47;;;;;;;0.63;0.40;;;21.00;57.70;;;;;;6290365;28;20044;-75
2022/09/21 12:29:52;;;;;;;3.13;0.60;;;21.00;57.80;;;;;;6290059;28;20056;-77
2022/09/21 12:33:09;;;;;;;1.10;0.40;;;21.00;57.80;;;;;;6290551;28;20509;-77
2022/09/21 12:36:15;;;;;;;0.95;0.40;;;21.00;57.80;;;;;;6273828;28;20036;-77
2022/09/21 12:39:31;;;;;;;0.70;0.40;;;21.00;57.90;;;;;;6288999;28;20057;-77
2022/09/21 12:43:25;;;;;;;3.42;0.40;;;21.00;57.80;;;;;;6290212;28;20033;-77
2022/09/21 12:46:36;;;;;;;1.65;0.40;;;20.90;57.80;;;;;;6217968;28;20068;-77
2022/09/21 12:49:47;;;;;;;0.50;0.43;;;20.90;57.80;;;;;;6319121;28;20031;-77
2022/09/21 12:52:49;;;;;;;1.25;0.60;;;20.90;57.80;;;;;;6309563;28;20027;-77
2022/09/21 12:56:19;;;;;;;2.45;0.75;;;20.90;58.00;;;;;;6318977;28;20023;-77
2022/09/21 13:00:05;;;;;;;4.75;0.90;;;20.90;57.50;;;;;;6319484;28;20024;-77
2022/09/21 13:03:13;;;;;;;;;;;20.90;57.20;;;;;;6316455;28;20494;-76
2022/09/21 13:06:54;;;;;;;2.00;0.82;;;20.90;56.90;;;;;;6319806;28;19912;-77
2022/09/21 13:09:56;;;;;;;2.22;0.65;;;20.90;57.00;;;;;;6319841;28;20044;-78
2022/09/21 13:13:01;;;;;;;2.70;0.65;;;20.90;57.00;;;;;;6318764;28;20028;-77
2022/09/21 13:16:05;;;;;;;1.55;0.70;;;20.90;57.00;;;;;;6317859;28;20375;-77
2022/09/21 13:19:23;;;;;;;1.42;0.52;;;20.90;57.00;;;;;;6319597;28;20027;-77
2022/09/21 13:22:25;;;;;;;1.33;0.50;;;20.90;57.00;;;;;;6319247;28;20035;-77
2022/09/21 13:25:28;;;;;;;3.15;0.75;;;20.90;57.10;;;;;;6319325;28;20532;-76
2022/09/21 13:28:55;;;;;;;4.85;0.60;;;20.90;57.10;;;;;;6319084;28;20020;-77
2022/09/21 13:32:03;;;;;;;0.50;0.40;;;20.90;57.00;;;;;;6308688;28;20032;-77
2022/09/21 13:36:01;;;;;;;1.17;0.80;;;20.90;57.10;;;;;;6318704;28;20031;-78
2022/09/21 13:39:08;;;;;;;1.10;0.63;;;20.90;57.10;;;;;;6234915;28;20049;-77
2022/09/21 13:42:27;;;;;;;0.60;0.40;;;20.90;57.10;;;;;;6247653;28;20117;-77
2022/09/21 13:45:28;;;;;;;0.85;0.43;;;20.90;57.50;;;;;;6298096;28;20028;-78
2022/09/21 13:48:29;;;;;;;1.23;0.68;;;20.90;57.30;;;;;;6295510;28;20016;-77
2022/09/21 13:51:33;;;;;;;2.42;0.95;;;20.90;57.30;;;;;;6298100;28;20090;-78
2022/09/21 13:54:47;;;;;;;2.80;0.82;;;20.90;56.60;;;;;;6289041;28;20028;-76
2022/09/21 13:57:54;;;;;;;1.80;1.00;;;20.90;56.70;;;;;;6296646;28;20027;-77
2022/09/21 14:01:03;;;;;;;1.92;1.00;;;20.90;56.80;;;;;;6297209;28;20487;-76
2022/09/21 14:04:26;;;;;;;1.70;1.00;;;20.90;56.80;;;;;;6297285;28;20479;-77
2022/09/21 14:07:31;;;;;;;4.28;1.00;;;20.90;56.80;;;;;;6296341;28;20139;-78
2022/09/21 14:10:36;;;;;;;5.65;1.00;;;20.90;56.80;;;;;;6297521;28;20034;-77
2022/09/21 14:13:46;;;;;;;1.90;1.30;;;20.90;56.90;;;;;;6296286;28;20016;-77
2022/09/21 14:16:56;;;;;;;1.70;1.00;;;20.90;56.90;;;;;;6297533;28;20531;-78
2022/09/21 14:19:58;;;;;;;1.77;1.10;;;20.90;57.00;;;;;;6293583;28;20024;-78
2022/09/21 14:23:15;;;;;;;1.42;1.00;;;20.90;56.90;;;;;;6297369;28;20025;-77
2022/09/21 14:26:47;;;;;;;1.85;1.00;;;20.90;57.00;;;;;;6272809;28;20100;-77
2022/09/21 14:29:52;;;;;;;2.00;0.90;;;20.90;57.00;;;;;;6292746;28;20028;-77
2022/09/21 14:32:59;;;;;;;1.45;1.02;;;20.90;57.00;;;;;;6281157;28;20024;-78
2022/09/21 14:36:06;;;;;;;1.05;0.80;;;20.90;57.00;;;;;;6297891;28;20531;-78
2022/09/21 14:39:17;;;;;;;1.35;1.02;;;20.90;57.00;;;;;;6295994;28;20030;-78
2022/09/21 14:42:24;;;;;;;1.52;1.00;;;20.90;57.10;;;;;;6296295;28;20039;-76
2022/09/21 14:45:54;;;;;;;1.67;1.10;;;20.90;57.10;;;;;;6193417;28;20446;-78
2022/09/21 14:49:05;;;;;;;1.13;0.80;;;20.90;57.10;;;;;;6193514;28;20463;-77
2022/09/21 14:52:24;;;;;;;1.05;0.90;;;20.90;57.20;;;;;;6194005;28;20022;-77
2022/09/21 14:56:11;;;;;;;1.48;1.00;;;20.90;57.20;;;;;;6193758;28;20477;-78
2022/09/21 14:59:26;;;;;;;1.63;1.00;;;20.90;57.10;;;;;;6192782;28;20052;-77
2022/09/21 15:02:33;;;;;;;0.77;0.60;;;20.90;57.20;;;;;;6183349;28;20108;-78
2022/09/21 15:05:37;;;;;;;1.75;0.98;;;20.90;57.20;;;;;;6188216;28;20230;-78
2022/09/21 15:12:20;;;;;;;1.40;0.93;;;20.90;57.30;;;;;;6170133;28;20038;-78
2022/09/21 15:15:39;;;;;;;2.35;0.80;;;20.90;57.30;;;;;;6189955;28;20037;-77
2022/09/21 15:18:41;;;;;;;1.65;1.13;;;20.90;57.20;;;;;;6174348;28;20104;-78
2022/09/21 15:21:44;;;;;;;5.13;0.90;;;20.90;57.30;;;;;;6191289;28;20052;-78
2022/09/21 15:24:54;;;;;;;3.40;0.90;;;20.90;57.30;;;;;;6190948;28;20045;-78
2022/09/21 15:27:55;;;;;;;1.83;0.88;;;20.90;57.30;;;;;;6193749;28;20053;-78
2022/09/21 15:30:56;;;;;;;2.22;1.00;;;20.90;57.30;;;;;;6194173;28;20026;-78
2022/09/21 15:33:57;;;;;;;2.20;1.08;;;20.90;57.30;;;;;;6175201;28;20037;-78
2022/09/21 15:37:15;;;;;;;1.00;0.70;;;20.90;57.30;;;;;;6193519;28;20031;-78
2022/09/21 15:40:24;;;;;;;1.55;0.90;;;20.90;57.40;;;;;;6184656;28;20027;-78
2022/09/21 15:43:25;;;;;;;2.00;0.90;;;20.90;57.30;;;;;;6192591;28;20091;-77
2022/09/21 15:46:25;;;;;;;2.55;1.02;;;20.90;57.50;;;;;;6192403;28;20026;-77
2022/09/21 15:49:28;;;;;;;1.48;0.80;;;20.90;57.30;;;;;;6191193;28;20026;-77
2022/09/21 15:52:36;;;;;;;2.35;0.80;;;20.90;57.30;;;;;;6192814;28;20117;-77
2022/09/21 15:55:40;;;;;;;4.00;0.70;;;20.90;57.30;;;;;;6189654;28;20050;-76
2022/09/21 15:58:44;;;;;;;1.30;0.88;;;20.90;57.40;;;;;;6192481;28;20176;-77
2022/09/21 16:01:47;;;;;;;1.02;0.90;;;20.90;57.40;;;;;;6194449;28;20034;-77
2022/09/21 16:04:50;;;;;;;1.27;0.75;;;20.90;57.40;;;;;;6192563;28;20026;-77
2022/09/21 16:08:16;;;;;;;1.02;0.82;;;20.90;57.40;;;;;;6193440;28;20122;-78
2022/09/21 16:11:34;;;;;;;3.50;0.90;;;20.90;57.50;;;;;;6192624;28;20105;-78
2022/09/21 16:14:55;;;;;;;1.80;1.23;;;20.90;57.40;;;;;;6191367;28;20378;-76
2022/09/21 16:18:01;;;;;;;1.33;0.77;;;20.90;57.50;;;;;;6190581;28;20358;-78
2022/09/21 16:21:20;;;;;;;2.17;0.75;;;20.90;57.50;;;;;;6189682;28;20034;-77
2022/09/21 16:24:22;;;;;;;1.42;0.82;;;20.90;57.50;;;;;;6190082;28;20041;-78
2022/09/21 16:27:26;;;;;;;1.15;0.80;;;20.90;57.50;;;;;;6190313;28;20125;-78
2022/09/21 16:30:52;;;;;;;1.58;0.90;;;20.90;57.50;;;;;;6189765;28;20543;-77
2022/09/21 16:34:04;;;;;;;0.98;0.73;;;20.90;57.50;;;;;;6190412;28;20026;-78